Aérodrome :
LOGIN :

S'inscrire | Disclaimer

   EN    FR    IT 

 










Légende :    VFR   VFR Marginal   IFR   IFR Intensif   IFR Très Intensif
Visi : 
Plafond : 
>= 8 km
>= 3000ft
5 à 8 km
1000 à 3000 ft
1500m à 5 km
500 à 1000 ft
800 à 1500m
200 à 500 ft
< 800m
< 200 ft
Symboles :   Orages  Brouillard  Fortes neiges  Fortes précipitations  Vent > 20 kt
SIGMETs :   Divers  Orages  Givrage  Turbulence  Onde Orograph.  Cendres Volcan.






- Altitude de l'aérodrome : 63 ft
- Code IATA : BZM


EHWO - Woensdrecht Airbase

DERNIER METAR :
  • 100925Z AUTO 19005KT 160V220 9999 SCT210 SCT360 04/01 Q1024 BLU 21005KT CAVOK

METARs EXPIRÉS :
  • 100855Z AUTO 18006KT 160V220 9999 BKN210 03/00 Q1024 BLU 21005KT CAVOK
  • 100825Z AUTO 19004KT 170V230 9999 OVC200 03/00 Q1024 BLU 21005KT CAVOK
  • 100803Z AUTO 21005KT 170V230 9999 OVC210 03/00 Q1024 BLU 21005KT CAVOK
  • 100755Z AUTO 22005KT 190V250 9999 OVC200 03/00 Q1024 BLU 21005KT CAVOK
  • 100725Z AUTO 21005KT 190V250 9999 OVC220 03/00 Q1024 BLU 21005KT CAVOK

TAF TAF EHWO
Valide du 10 à 10h jusqu'au 10 à 22h UTC


100930Z 1010/1022 18007KT CAVOK
BECMG 1010/1012 19012G25KT
BECMG 1015/1018 19016G30KT
PROB40
TEMPO 1016/1022 20018G35KT



MET'MAP, la Météo Aéronautique d'un coup d'oeil ! - Copyright ORBIFLY Décembre 2007 - Disclaimer

ORBIFLY MET'MAP TEAM :

Programmation & Développement : Alexandra Zaïnal
Sur une idée originale de : Baudouin d'Aumeries
Assistance à la programmation : Marc-Olivier Méhu
Soutien technique & logistique : Manuel Goepfert

Contact : metmap@orbifly.com




SOURCES & CREDITS :

   NOAA